sensor_id;sensor_type;location;lat;lon;timestamp;P1;durP1;ratioP1;P2;durP2;ratioP2
56637;SDS011;42507;51.982;20.140;2022-11-12T00:01:30;15.13;;;8.03;;
56637;SDS011;42507;51.982;20.140;2022-11-12T00:04:14;18.40;;;8.73;;
56637;SDS011;42507;51.982;20.140;2022-11-12T00:06:59;15.18;;;8.55;;
56637;SDS011;42507;51.982;20.140;2022-11-12T00:09:44;14.28;;;8.13;;
56637;SDS011;42507;51.982;20.140;2022-11-12T00:12:29;16.20;;;8.58;;
56637;SDS011;42507;51.982;20.140;2022-11-12T00:15:13;16.07;;;8.20;;
56637;SDS011;42507;51.982;20.140;2022-11-12T00:17:58;16.70;;;8.15;;
56637;SDS011;42507;51.982;20.140;2022-11-12T00:20:43;17.90;;;9.58;;
56637;SDS011;42507;51.982;20.140;2022-11-12T00:23:28;14.83;;;8.80;;
56637;SDS011;42507;51.982;20.140;2022-11-12T00:26:13;19.55;;;9.45;;
56637;SDS011;42507;51.982;20.140;2022-11-12T00:28:57;19.25;;;9.35;;
56637;SDS011;42507;51.982;20.140;2022-11-12T00:31:43;16.90;;;9.18;;
56637;SDS011;42507;51.982;20.140;2022-11-12T00:34:28;16.67;;;9.43;;
56637;SDS011;42507;51.982;20.140;2022-11-12T00:37:12;22.87;;;9.43;;
56637;SDS011;42507;51.982;20.140;2022-11-12T00:39:57;20.27;;;9.90;;
56637;SDS011;42507;51.982;20.140;2022-11-12T00:42:42;16.40;;;8.93;;
56637;SDS011;42507;51.982;20.140;2022-11-12T00:45:26;17.73;;;9.63;;
56637;SDS011;42507;51.982;20.140;2022-11-12T00:48:11;21.07;;;9.38;;
56637;SDS011;42507;51.982;20.140;2022-11-12T00:51:03;22.62;;;10.45;;
56637;SDS011;42507;51.982;20.140;2022-11-12T00:53:49;19.87;;;10.53;;
56637;SDS011;42507;51.982;20.140;2022-11-12T00:56:33;18.92;;;10.50;;
56637;SDS011;42507;51.982;20.140;2022-11-12T00:59:18;18.55;;;10.20;;
56637;SDS011;42507;51.982;20.140;2022-11-12T01:02:03;20.15;;;10.80;;
56637;SDS011;42507;51.982;20.140;2022-11-12T01:04:47;21.37;;;10.35;;
56637;SDS011;42507;51.982;20.140;2022-11-12T01:07:32;20.80;;;10.53;;
56637;SDS011;42507;51.982;20.140;2022-11-12T01:10:17;19.75;;;11.00;;
56637;SDS011;42507;51.982;20.140;2022-11-12T01:13:02;19.30;;;10.48;;
56637;SDS011;42507;51.982;20.140;2022-11-12T01:15:47;21.00;;;11.40;;
56637;SDS011;42507;51.982;20.140;2022-11-12T01:18:32;19.95;;;11.33;;
56637;SDS011;42507;51.982;20.140;2022-11-12T01:21:16;22.32;;;10.80;;
56637;SDS011;42507;51.982;20.140;2022-11-12T01:24:01;20.85;;;10.72;;
56637;SDS011;42507;51.982;20.140;2022-11-12T01:26:46;19.37;;;10.35;;
56637;SDS011;42507;51.982;20.140;2022-11-12T01:29:31;26.27;;;10.72;;
56637;SDS011;42507;51.982;20.140;2022-11-12T01:32:15;21.75;;;11.38;;
56637;SDS011;42507;51.982;20.140;2022-11-12T01:35:00;21.10;;;12.00;;
56637;SDS011;42507;51.982;20.140;2022-11-12T01:37:45;22.55;;;11.97;;
56637;SDS011;42507;51.982;20.140;2022-11-12T01:40:30;24.05;;;12.15;;
56637;SDS011;42507;51.982;20.140;2022-11-12T01:43:15;20.88;;;12.75;;
56637;SDS011;42507;51.982;20.140;2022-11-12T01:46:01;22.55;;;12.28;;
56637;SDS011;42507;51.982;20.140;2022-11-12T01:48:51;22.07;;;12.13;;
56637;SDS011;42507;51.982;20.140;2022-11-12T01:51:40;26.77;;;13.22;;
56637;SDS011;42507;51.982;20.140;2022-11-12T01:54:27;22.90;;;13.55;;
56637;SDS011;42507;51.982;20.140;2022-11-12T01:57:16;23.12;;;12.30;;
56637;SDS011;42507;51.982;20.140;2022-11-12T02:00:06;25.32;;;13.65;;
56637;SDS011;42507;51.982;20.140;2022-11-12T02:02:58;24.35;;;12.00;;
56637;SDS011;42507;51.982;20.140;2022-11-12T02:05:42;23.83;;;12.33;;
56637;SDS011;42507;51.982;20.140;2022-11-12T02:08:29;27.25;;;13.45;;
56637;SDS011;42507;51.982;20.140;2022-11-12T02:11:16;23.15;;;11.30;;
56637;SDS011;42507;51.982;20.140;2022-11-12T02:14:03;20.43;;;12.78;;
56637;SDS011;42507;51.982;20.140;2022-11-12T02:16:47;23.35;;;12.43;;
56637;SDS011;42507;51.982;20.140;2022-11-12T02:19:35;23.27;;;12.82;;
56637;SDS011;42507;51.982;20.140;2022-11-12T02:22:22;23.95;;;13.75;;
56637;SDS011;42507;51.982;20.140;2022-11-12T02:25:08;24.80;;;12.53;;
56637;SDS011;42507;51.982;20.140;2022-11-12T02:28:05;24.32;;;11.85;;
56637;SDS011;42507;51.982;20.140;2022-11-12T02:30:49;22.70;;;11.88;;
56637;SDS011;42507;51.982;20.140;2022-11-12T02:33:34;25.65;;;12.23;;
56637;SDS011;42507;51.982;20.140;2022-11-12T02:36:19;18.57;;;11.90;;
56637;SDS011;42507;51.982;20.140;2022-11-12T02:39:04;26.82;;;13.08;;
56637;SDS011;42507;51.982;20.140;2022-11-12T02:41:49;23.70;;;12.60;;
56637;SDS011;42507;51.982;20.140;2022-11-12T02:44:34;24.85;;;12.93;;
56637;SDS011;42507;51.982;20.140;2022-11-12T02:47:19;25.65;;;12.75;;
56637;SDS011;42507;51.982;20.140;2022-11-12T02:50:03;24.12;;;12.43;;
56637;SDS011;42507;51.982;20.140;2022-11-12T02:52:49;31.75;;;13.93;;
56637;SDS011;42507;51.982;20.140;2022-11-12T02:55:33;24.15;;;14.20;;
56637;SDS011;42507;51.982;20.140;2022-11-12T02:58:18;23.38;;;13.20;;
56637;SDS011;42507;51.982;20.140;2022-11-12T03:01:05;27.67;;;13.75;;
56637;SDS011;42507;51.982;20.140;2022-11-12T03:03:50;20.77;;;12.70;;
56637;SDS011;42507;51.982;20.140;2022-11-12T03:06:35;24.90;;;13.32;;
56637;SDS011;42507;51.982;20.140;2022-11-12T03:09:20;26.75;;;13.78;;
56637;SDS011;42507;51.982;20.140;2022-11-12T03:12:05;28.32;;;14.40;;
56637;SDS011;42507;51.982;20.140;2022-11-12T03:14:50;27.45;;;13.80;;
56637;SDS011;42507;51.982;20.140;2022-11-12T03:17:34;34.15;;;15.35;;
56637;SDS011;42507;51.982;20.140;2022-11-12T03:20:19;29.98;;;15.13;;
56637;SDS011;42507;51.982;20.140;2022-11-12T03:23:05;26.50;;;14.68;;
56637;SDS011;42507;51.982;20.140;2022-11-12T03:25:53;30.37;;;15.03;;
56637;SDS011;42507;51.982;20.140;2022-11-12T03:28:38;31.80;;;15.95;;
56637;SDS011;42507;51.982;20.140;2022-11-12T03:31:22;33.33;;;15.35;;
56637;SDS011;42507;51.982;20.140;2022-11-12T03:34:09;30.43;;;16.05;;
56637;SDS011;42507;51.982;20.140;2022-11-12T03:36:54;25.32;;;16.07;;
56637;SDS011;42507;51.982;20.140;2022-11-12T03:39:39;32.42;;;15.85;;
56637;SDS011;42507;51.982;20.140;2022-11-12T03:42:24;28.52;;;16.17;;
56637;SDS011;42507;51.982;20.140;2022-11-12T03:45:08;28.32;;;15.25;;
56637;SDS011;42507;51.982;20.140;2022-11-12T03:47:54;28.35;;;14.28;;
56637;SDS011;42507;51.982;20.140;2022-11-12T03:50:40;29.35;;;15.88;;
56637;SDS011;42507;51.982;20.140;2022-11-12T03:53:25;28.35;;;15.90;;
56637;SDS011;42507;51.982;20.140;2022-11-12T03:56:10;30.37;;;15.90;;
56637;SDS011;42507;51.982;20.140;2022-11-12T03:58:54;23.12;;;13.50;;
56637;SDS011;42507;51.982;20.140;2022-11-12T04:01:39;29.07;;;15.58;;
56637;SDS011;42507;51.982;20.140;2022-11-12T04:04:24;23.40;;;12.45;;
56637;SDS011;42507;51.982;20.140;2022-11-12T04:07:10;31.65;;;14.68;;
56637;SDS011;42507;51.982;20.140;2022-11-12T04:10:14;23.95;;;14.13;;
56637;SDS011;42507;51.982;20.140;2022-11-12T04:12:58;22.82;;;14.55;;
56637;SDS011;42507;51.982;20.140;2022-11-12T04:16:03;29.30;;;14.73;;
56637;SDS011;42507;51.982;20.140;2022-11-12T04:19:11;28.50;;;15.15;;
56637;SDS011;42507;51.982;20.140;2022-11-12T04:22:15;27.75;;;15.58;;
56637;SDS011;42507;51.982;20.140;2022-11-12T04:25:00;25.90;;;14.73;;
56637;SDS011;42507;51.982;20.140;2022-11-12T04:28:03;24.70;;;13.00;;
56637;SDS011;42507;51.982;20.140;2022-11-12T04:30:48;24.32;;;13.68;;
56637;SDS011;42507;51.982;20.140;2022-11-12T04:33:33;28.12;;;16.00;;
56637;SDS011;42507;51.982;20.140;2022-11-12T04:36:18;30.55;;;14.93;;
56637;SDS011;42507;51.982;20.140;2022-11-12T04:39:03;31.15;;;15.18;;
56637;SDS011;42507;51.982;20.140;2022-11-12T04:41:47;25.97;;;13.98;;
56637;SDS011;42507;51.982;20.140;2022-11-12T04:44:50;24.02;;;14.40;;
56637;SDS011;42507;51.982;20.140;2022-11-12T04:47:46;32.50;;;16.02;;
56637;SDS011;42507;51.982;20.140;2022-11-12T04:50:31;26.85;;;13.72;;
56637;SDS011;42507;51.982;20.140;2022-11-12T04:53:16;28.15;;;14.43;;
56637;SDS011;42507;51.982;20.140;2022-11-12T04:56:00;31.77;;;15.40;;
56637;SDS011;42507;51.982;20.140;2022-11-12T04:58:45;27.20;;;14.75;;
56637;SDS011;42507;51.982;20.140;2022-11-12T05:01:30;30.27;;;15.90;;
56637;SDS011;42507;51.982;20.140;2022-11-12T05:04:15;29.87;;;15.30;;
56637;SDS011;42507;51.982;20.140;2022-11-12T05:07:00;24.57;;;13.70;;
56637;SDS011;42507;51.982;20.140;2022-11-12T05:09:45;28.38;;;15.03;;
56637;SDS011;42507;51.982;20.140;2022-11-12T05:12:30;32.83;;;16.70;;
56637;SDS011;42507;51.982;20.140;2022-11-12T05:15:14;34.30;;;16.52;;
56637;SDS011;42507;51.982;20.140;2022-11-12T05:17:59;35.00;;;15.75;;
56637;SDS011;42507;51.982;20.140;2022-11-12T05:20:45;30.23;;;15.32;;
56637;SDS011;42507;51.982;20.140;2022-11-12T05:23:29;29.12;;;16.40;;
56637;SDS011;42507;51.982;20.140;2022-11-12T05:26:14;30.68;;;15.25;;
56637;SDS011;42507;51.982;20.140;2022-11-12T05:28:59;30.80;;;15.80;;
56637;SDS011;42507;51.982;20.140;2022-11-12T05:31:44;37.28;;;17.87;;
56637;SDS011;42507;51.982;20.140;2022-11-12T05:34:29;30.65;;;16.55;;
56637;SDS011;42507;51.982;20.140;2022-11-12T05:37:13;33.70;;;17.25;;
56637;SDS011;42507;51.982;20.140;2022-11-12T05:39:59;29.77;;;15.18;;
56637;SDS011;42507;51.982;20.140;2022-11-12T05:42:43;29.30;;;14.35;;
56637;SDS011;42507;51.982;20.140;2022-11-12T05:45:29;34.58;;;17.75;;
56637;SDS011;42507;51.982;20.140;2022-11-12T05:48:13;32.15;;;16.85;;
56637;SDS011;42507;51.982;20.140;2022-11-12T05:50:58;31.35;;;17.70;;
56637;SDS011;42507;51.982;20.140;2022-11-12T05:53:43;36.33;;;18.98;;
56637;SDS011;42507;51.982;20.140;2022-11-12T05:56:27;36.10;;;19.52;;
56637;SDS011;42507;51.982;20.140;2022-11-12T05:59:13;31.40;;;18.32;;
56637;SDS011;42507;51.982;20.140;2022-11-12T06:01:58;29.05;;;16.57;;
56637;SDS011;42507;51.982;20.140;2022-11-12T06:04:43;34.83;;;18.95;;
56637;SDS011;42507;51.982;20.140;2022-11-12T06:07:28;32.70;;;18.85;;
56637;SDS011;42507;51.982;20.140;2022-11-12T06:10:13;31.05;;;18.10;;
56637;SDS011;42507;51.982;20.140;2022-11-12T06:12:57;27.35;;;16.60;;
56637;SDS011;42507;51.982;20.140;2022-11-12T06:15:42;33.53;;;19.92;;
56637;SDS011;42507;51.982;20.140;2022-11-12T06:18:27;31.27;;;18.57;;
56637;SDS011;42507;51.982;20.140;2022-11-12T06:21:11;33.78;;;19.17;;
56637;SDS011;42507;51.982;20.140;2022-11-12T06:24:02;32.20;;;19.40;;
56637;SDS011;42507;51.982;20.140;2022-11-12T06:26:47;31.05;;;17.30;;
56637;SDS011;42507;51.982;20.140;2022-11-12T06:29:32;31.25;;;17.85;;
56637;SDS011;42507;51.982;20.140;2022-11-12T06:32:18;30.27;;;17.10;;
56637;SDS011;42507;51.982;20.140;2022-11-12T06:35:03;34.58;;;19.05;;
56637;SDS011;42507;51.982;20.140;2022-11-12T06:37:48;36.38;;;18.15;;
56637;SDS011;42507;51.982;20.140;2022-11-12T06:40:33;29.87;;;18.35;;
56637;SDS011;42507;51.982;20.140;2022-11-12T06:43:18;32.08;;;18.20;;
56637;SDS011;42507;51.982;20.140;2022-11-12T06:46:04;32.45;;;19.17;;
56637;SDS011;42507;51.982;20.140;2022-11-12T06:48:59;33.35;;;19.23;;
56637;SDS011;42507;51.982;20.140;2022-11-12T06:51:44;35.33;;;19.12;;
56637;SDS011;42507;51.982;20.140;2022-11-12T06:54:29;31.12;;;18.32;;
56637;SDS011;42507;51.982;20.140;2022-11-12T06:57:17;33.45;;;19.17;;
56637;SDS011;42507;51.982;20.140;2022-11-12T07:00:00;36.50;;;19.77;;
56637;SDS011;42507;51.982;20.140;2022-11-12T07:02:45;31.40;;;20.12;;
56637;SDS011;42507;51.982;20.140;2022-11-12T07:05:29;27.80;;;18.42;;
56637;SDS011;42507;51.982;20.140;2022-11-12T07:08:14;32.33;;;18.67;;
56637;SDS011;42507;51.982;20.140;2022-11-12T07:10:59;34.98;;;19.25;;
56637;SDS011;42507;51.982;20.140;2022-11-12T07:13:44;31.82;;;18.80;;
56637;SDS011;42507;51.982;20.140;2022-11-12T07:16:29;32.15;;;18.82;;
56637;SDS011;42507;51.982;20.140;2022-11-12T07:19:14;25.55;;;15.13;;
56637;SDS011;42507;51.982;20.140;2022-11-12T07:21:58;30.62;;;17.50;;
56637;SDS011;42507;51.982;20.140;2022-11-12T07:24:43;35.83;;;19.92;;
56637;SDS011;42507;51.982;20.140;2022-11-12T07:27:28;35.10;;;19.77;;
56637;SDS011;42507;51.982;20.140;2022-11-12T07:30:14;33.42;;;18.75;;
56637;SDS011;42507;51.982;20.140;2022-11-12T07:32:59;29.15;;;17.07;;
56637;SDS011;42507;51.982;20.140;2022-11-12T07:35:44;33.42;;;20.20;;
56637;SDS011;42507;51.982;20.140;2022-11-12T07:38:29;37.20;;;20.65;;
56637;SDS011;42507;51.982;20.140;2022-11-12T07:41:17;38.00;;;22.02;;
56637;SDS011;42507;51.982;20.140;2022-11-12T07:44:05;33.28;;;19.82;;
56637;SDS011;42507;51.982;20.140;2022-11-12T07:46:49;29.98;;;18.37;;
56637;SDS011;42507;51.982;20.140;2022-11-12T07:49:34;34.55;;;19.52;;
56637;SDS011;42507;51.982;20.140;2022-11-12T07:52:19;27.55;;;16.35;;
56637;SDS011;42507;51.982;20.140;2022-11-12T07:55:04;35.90;;;20.88;;
56637;SDS011;42507;51.982;20.140;2022-11-12T07:57:49;30.85;;;17.73;;
56637;SDS011;42507;51.982;20.140;2022-11-12T08:00:36;38.75;;;22.52;;
56637;SDS011;42507;51.982;20.140;2022-11-12T08:03:21;38.40;;;20.77;;
56637;SDS011;42507;51.982;20.140;2022-11-12T08:06:06;33.20;;;19.62;;
56637;SDS011;42507;51.982;20.140;2022-11-12T08:08:51;37.60;;;21.60;;
56637;SDS011;42507;51.982;20.140;2022-11-12T08:11:38;36.53;;;22.32;;
56637;SDS011;42507;51.982;20.140;2022-11-12T08:14:24;39.18;;;23.85;;
56637;SDS011;42507;51.982;20.140;2022-11-12T08:17:09;34.50;;;21.80;;
56637;SDS011;42507;51.982;20.140;2022-11-12T08:19:54;40.95;;;23.10;;
56637;SDS011;42507;51.982;20.140;2022-11-12T08:22:39;37.85;;;22.25;;
56637;SDS011;42507;51.982;20.140;2022-11-12T08:25:24;39.03;;;23.98;;
56637;SDS011;42507;51.982;20.140;2022-11-12T08:28:09;39.90;;;24.43;;
56637;SDS011;42507;51.982;20.140;2022-11-12T08:30:54;37.63;;;18.90;;
56637;SDS011;42507;51.982;20.140;2022-11-12T08:33:40;38.83;;;21.55;;
56637;SDS011;42507;51.982;20.140;2022-11-12T08:36:25;24.30;;;13.62;;
56637;SDS011;42507;51.982;20.140;2022-11-12T08:39:10;43.38;;;26.45;;
56637;SDS011;42507;51.982;20.140;2022-11-12T08:41:54;39.40;;;22.13;;
56637;SDS011;42507;51.982;20.140;2022-11-12T08:44:39;35.80;;;18.92;;
56637;SDS011;42507;51.982;20.140;2022-11-12T08:47:24;39.23;;;20.23;;
56637;SDS011;42507;51.982;20.140;2022-11-12T08:50:09;29.77;;;15.53;;
56637;SDS011;42507;51.982;20.140;2022-11-12T08:53:00;39.13;;;22.70;;
56637;SDS011;42507;51.982;20.140;2022-11-12T08:55:48;48.33;;;26.57;;
56637;SDS011;42507;51.982;20.140;2022-11-12T08:58:40;47.60;;;26.55;;
56637;SDS011;42507;51.982;20.140;2022-11-12T09:01:25;46.80;;;24.87;;
56637;SDS011;42507;51.982;20.140;2022-11-12T09:04:10;47.15;;;26.73;;
56637;SDS011;42507;51.982;20.140;2022-11-12T09:06:54;39.30;;;21.37;;
56637;SDS011;42507;51.982;20.140;2022-11-12T09:09:39;47.50;;;25.10;;
56637;SDS011;42507;51.982;20.140;2022-11-12T09:12:24;44.15;;;23.75;;
56637;SDS011;42507;51.982;20.140;2022-11-12T09:15:09;46.50;;;26.68;;
56637;SDS011;42507;51.982;20.140;2022-11-12T09:17:54;40.17;;;22.77;;
56637;SDS011;42507;51.982;20.140;2022-11-12T09:20:40;39.73;;;23.65;;
56637;SDS011;42507;51.982;20.140;2022-11-12T09:23:26;49.10;;;27.17;;
56637;SDS011;42507;51.982;20.140;2022-11-12T09:26:10;51.77;;;28.12;;
56637;SDS011;42507;51.982;20.140;2022-11-12T09:28:55;45.30;;;24.70;;
56637;SDS011;42507;51.982;20.140;2022-11-12T09:31:39;37.78;;;23.22;;
56637;SDS011;42507;51.982;20.140;2022-11-12T09:34:24;47.90;;;26.93;;
56637;SDS011;42507;51.982;20.140;2022-11-12T09:37:09;44.30;;;25.77;;
56637;SDS011;42507;51.982;20.140;2022-11-12T09:39:54;36.08;;;19.25;;
56637;SDS011;42507;51.982;20.140;2022-11-12T09:42:39;46.20;;;27.10;;
56637;SDS011;42507;51.982;20.140;2022-11-12T09:45:28;42.70;;;25.50;;
56637;SDS011;42507;51.982;20.140;2022-11-12T09:48:15;52.23;;;28.60;;
56637;SDS011;42507;51.982;20.140;2022-11-12T09:51:20;49.15;;;28.57;;
56637;SDS011;42507;51.982;20.140;2022-11-12T09:57:03;48.92;;;26.42;;
56637;SDS011;42507;51.982;20.140;2022-11-12T09:59:51;42.45;;;25.70;;
56637;SDS011;42507;51.982;20.140;2022-11-12T10:02:41;44.13;;;23.90;;
56637;SDS011;42507;51.982;20.140;2022-11-12T10:05:37;34.90;;;21.70;;
56637;SDS011;42507;51.982;20.140;2022-11-12T10:08:56;34.70;;;22.55;;
56637;SDS011;42507;51.982;20.140;2022-11-12T10:12:02;33.67;;;21.07;;
56637;SDS011;42507;51.982;20.140;2022-11-12T10:18:49;35.85;;;22.25;;
56637;SDS011;42507;51.982;20.140;2022-11-12T10:22:22;33.60;;;20.20;;
56637;SDS011;42507;51.982;20.140;2022-11-12T10:25:13;36.30;;;21.82;;
56637;SDS011;42507;51.982;20.140;2022-11-12T10:28:07;37.90;;;22.77;;
56637;SDS011;42507;51.982;20.140;2022-11-12T10:31:13;31.93;;;19.90;;
56637;SDS011;42507;51.982;20.140;2022-11-12T10:34:09;35.70;;;23.10;;
56637;SDS011;42507;51.982;20.140;2022-11-12T10:37:04;29.60;;;16.07;;
56637;SDS011;42507;51.982;20.140;2022-11-12T10:39:51;40.33;;;24.35;;
56637;SDS011;42507;51.982;20.140;2022-11-12T10:42:36;37.13;;;23.98;;
56637;SDS011;42507;51.982;20.140;2022-11-12T10:45:45;40.58;;;24.90;;
56637;SDS011;42507;51.982;20.140;2022-11-12T10:48:32;37.05;;;22.25;;
56637;SDS011;42507;51.982;20.140;2022-11-12T10:51:24;40.48;;;22.73;;
56637;SDS011;42507;51.982;20.140;2022-11-12T10:54:19;32.48;;;19.67;;
56637;SDS011;42507;51.982;20.140;2022-11-12T10:57:21;37.73;;;22.58;;
56637;SDS011;42507;51.982;20.140;2022-11-12T11:03:05;34.65;;;22.15;;
56637;SDS011;42507;51.982;20.140;2022-11-12T11:09:13;37.08;;;20.80;;
56637;SDS011;42507;51.982;20.140;2022-11-12T11:11:59;30.75;;;18.40;;
56637;SDS011;42507;51.982;20.140;2022-11-12T11:14:44;42.58;;;22.27;;
56637;SDS011;42507;51.982;20.140;2022-11-12T11:17:29;35.08;;;22.22;;
56637;SDS011;42507;51.982;20.140;2022-11-12T11:20:34;36.08;;;20.17;;
56637;SDS011;42507;51.982;20.140;2022-11-12T11:23:23;31.07;;;16.90;;
56637;SDS011;42507;51.982;20.140;2022-11-12T11:26:18;33.10;;;20.23;;
56637;SDS011;42507;51.982;20.140;2022-11-12T11:29:34;31.70;;;18.60;;
56637;SDS011;42507;51.982;20.140;2022-11-12T11:33:04;33.48;;;19.05;;
56637;SDS011;42507;51.982;20.140;2022-11-12T11:39:16;35.30;;;20.75;;
56637;SDS011;42507;51.982;20.140;2022-11-12T11:42:11;33.48;;;19.90;;
56637;SDS011;42507;51.982;20.140;2022-11-12T11:45:30;37.85;;;22.52;;
56637;SDS011;42507;51.982;20.140;2022-11-12T11:48:22;40.28;;;22.58;;
56637;SDS011;42507;51.982;20.140;2022-11-12T11:51:27;35.33;;;20.02;;
56637;SDS011;42507;51.982;20.140;2022-11-12T11:57:28;22.70;;;13.05;;
56637;SDS011;42507;51.982;20.140;2022-11-12T12:00:20;35.83;;;20.50;;
56637;SDS011;42507;51.982;20.140;2022-11-12T12:03:22;31.37;;;19.00;;
56637;SDS011;42507;51.982;20.140;2022-11-12T12:06:26;33.10;;;19.70;;
56637;SDS011;42507;51.982;20.140;2022-11-12T12:09:32;36.25;;;19.37;;
56637;SDS011;42507;51.982;20.140;2022-11-12T12:19:46;35.20;;;22.17;;
56637;SDS011;42507;51.982;20.140;2022-11-12T12:26:21;36.70;;;21.82;;
56637;SDS011;42507;51.982;20.140;2022-11-12T12:42:00;34.90;;;21.33;;
56637;SDS011;42507;51.982;20.140;2022-11-12T12:45:07;33.85;;;21.52;;
56637;SDS011;42507;51.982;20.140;2022-11-12T12:48:04;33.02;;;19.77;;
56637;SDS011;42507;51.982;20.140;2022-11-12T12:51:06;34.60;;;19.80;;
56637;SDS011;42507;51.982;20.140;2022-11-12T12:53:51;34.67;;;21.17;;
56637;SDS011;42507;51.982;20.140;2022-11-12T12:56:43;35.43;;;19.27;;
56637;SDS011;42507;51.982;20.140;2022-11-12T12:59:30;35.57;;;19.83;;
56637;SDS011;42507;51.982;20.140;2022-11-12T13:02:19;28.92;;;17.95;;
56637;SDS011;42507;51.982;20.140;2022-11-12T13:05:19;32.30;;;19.65;;
56637;SDS011;42507;51.982;20.140;2022-11-12T13:08:12;30.43;;;17.80;;
56637;SDS011;42507;51.982;20.140;2022-11-12T13:10:59;29.52;;;19.12;;
56637;SDS011;42507;51.982;20.140;2022-11-12T13:13:44;36.33;;;19.92;;
56637;SDS011;42507;51.982;20.140;2022-11-12T13:25:33;27.73;;;17.80;;
56637;SDS011;42507;51.982;20.140;2022-11-12T13:28:18;26.48;;;16.93;;
56637;SDS011;42507;51.982;20.140;2022-11-12T13:31:19;26.85;;;17.77;;
56637;SDS011;42507;51.982;20.140;2022-11-12T13:33:54;31.77;;;16.73;;
56637;SDS011;42507;51.982;20.140;2022-11-12T13:36:38;26.50;;;17.27;;
56637;SDS011;42507;51.982;20.140;2022-11-12T13:39:24;25.57;;;17.52;;
56637;SDS011;42507;51.982;20.140;2022-11-12T13:42:13;25.48;;;16.23;;
56637;SDS011;42507;51.982;20.140;2022-11-12T13:45:23;31.97;;;19.05;;
56637;SDS011;42507;51.982;20.140;2022-11-12T13:48:14;27.65;;;17.57;;
56637;SDS011;42507;51.982;20.140;2022-11-12T13:51:16;29.07;;;19.00;;
56637;SDS011;42507;51.982;20.140;2022-11-12T13:54:28;30.37;;;18.87;;
56637;SDS011;42507;51.982;20.140;2022-11-12T13:57:13;29.60;;;18.07;;
56637;SDS011;42507;51.982;20.140;2022-11-12T14:00:08;32.98;;;19.75;;
56637;SDS011;42507;51.982;20.140;2022-11-12T14:03:06;32.70;;;19.95;;
56637;SDS011;42507;51.982;20.140;2022-11-12T14:05:51;32.55;;;19.02;;
56637;SDS011;42507;51.982;20.140;2022-11-12T14:18:22;35.83;;;21.02;;
56637;SDS011;42507;51.982;20.140;2022-11-12T14:21:35;38.13;;;21.30;;
56637;SDS011;42507;51.982;20.140;2022-11-12T14:24:20;47.05;;;24.72;;
56637;SDS011;42507;51.982;20.140;2022-11-12T14:30:20;43.70;;;23.07;;
56637;SDS011;42507;51.982;20.140;2022-11-12T14:33:18;57.90;;;27.80;;
56637;SDS011;42507;51.982;20.140;2022-11-12T14:36:05;43.90;;;22.80;;
56637;SDS011;42507;51.982;20.140;2022-11-12T14:38:56;45.28;;;23.55;;
56637;SDS011;42507;51.982;20.140;2022-11-12T14:41:41;38.17;;;20.90;;
56637;SDS011;42507;51.982;20.140;2022-11-12T14:44:32;39.70;;;21.20;;
56637;SDS011;42507;51.982;20.140;2022-11-12T14:47:17;39.78;;;21.40;;
56637;SDS011;42507;51.982;20.140;2022-11-12T14:50:02;33.95;;;19.05;;
56637;SDS011;42507;51.982;20.140;2022-11-12T14:52:48;35.35;;;19.82;;
56637;SDS011;42507;51.982;20.140;2022-11-12T14:55:41;34.48;;;19.48;;
56637;SDS011;42507;51.982;20.140;2022-11-12T14:58:27;32.55;;;20.02;;
56637;SDS011;42507;51.982;20.140;2022-11-12T15:01:21;34.25;;;19.20;;
56637;SDS011;42507;51.982;20.140;2022-11-12T15:04:18;34.92;;;20.08;;
56637;SDS011;42507;51.982;20.140;2022-11-12T15:07:21;35.10;;;20.08;;
56637;SDS011;42507;51.982;20.140;2022-11-12T15:10:28;34.85;;;20.75;;
56637;SDS011;42507;51.982;20.140;2022-11-12T15:16:10;35.30;;;20.17;;
56637;SDS011;42507;51.982;20.140;2022-11-12T15:19:06;37.70;;;20.27;;
56637;SDS011;42507;51.982;20.140;2022-11-12T15:22:17;34.95;;;20.37;;
56637;SDS011;42507;51.982;20.140;2022-11-12T15:25:09;42.60;;;21.17;;
56637;SDS011;42507;51.982;20.140;2022-11-12T15:28:22;35.80;;;20.25;;
56637;SDS011;42507;51.982;20.140;2022-11-12T15:31:19;36.10;;;21.25;;
56637;SDS011;42507;51.982;20.140;2022-11-12T15:34:24;31.87;;;19.95;;
56637;SDS011;42507;51.982;20.140;2022-11-12T15:40:14;33.08;;;21.82;;
56637;SDS011;42507;51.982;20.140;2022-11-12T15:43:03;36.88;;;20.97;;
56637;SDS011;42507;51.982;20.140;2022-11-12T15:46:09;30.17;;;18.87;;
56637;SDS011;42507;51.982;20.140;2022-11-12T15:48:56;35.60;;;22.35;;
56637;SDS011;42507;51.982;20.140;2022-11-12T15:51:41;33.65;;;19.73;;
56637;SDS011;42507;51.982;20.140;2022-11-12T15:54:26;36.08;;;21.15;;
56637;SDS011;42507;51.982;20.140;2022-11-12T15:57:19;35.78;;;20.40;;
56637;SDS011;42507;51.982;20.140;2022-11-12T16:00:13;32.73;;;18.52;;
56637;SDS011;42507;51.982;20.140;2022-11-12T16:03:18;34.50;;;21.25;;
56637;SDS011;42507;51.982;20.140;2022-11-12T16:06:04;34.70;;;21.82;;
56637;SDS011;42507;51.982;20.140;2022-11-12T16:08:49;36.68;;;20.90;;
56637;SDS011;42507;51.982;20.140;2022-11-12T16:11:34;36.85;;;20.97;;
56637;SDS011;42507;51.982;20.140;2022-11-12T16:14:18;32.65;;;20.55;;
56637;SDS011;42507;51.982;20.140;2022-11-12T16:17:04;32.83;;;20.15;;
56637;SDS011;42507;51.982;20.140;2022-11-12T16:19:53;35.83;;;22.17;;
56637;SDS011;42507;51.982;20.140;2022-11-12T16:22:38;47.17;;;25.62;;
56637;SDS011;42507;51.982;20.140;2022-11-12T16:25:23;34.78;;;22.25;;
56637;SDS011;42507;51.982;20.140;2022-11-12T16:28:12;41.10;;;23.47;;
56637;SDS011;42507;51.982;20.140;2022-11-12T16:30:59;38.75;;;23.50;;
56637;SDS011;42507;51.982;20.140;2022-11-12T16:33:44;37.03;;;22.62;;
56637;SDS011;42507;51.982;20.140;2022-11-12T16:36:31;35.33;;;22.22;;
56637;SDS011;42507;51.982;20.140;2022-11-12T16:39:16;40.28;;;24.18;;
56637;SDS011;42507;51.982;20.140;2022-11-12T16:42:01;40.83;;;24.72;;
56637;SDS011;42507;51.982;20.140;2022-11-12T16:44:46;32.98;;;20.50;;
56637;SDS011;42507;51.982;20.140;2022-11-12T16:47:30;35.58;;;20.62;;
56637;SDS011;42507;51.982;20.140;2022-11-12T16:50:16;38.53;;;23.60;;
56637;SDS011;42507;51.982;20.140;2022-11-12T16:53:04;44.65;;;26.17;;
56637;SDS011;42507;51.982;20.140;2022-11-12T16:55:49;45.52;;;27.05;;
56637;SDS011;42507;51.982;20.140;2022-11-12T16:58:34;50.73;;;29.45;;
56637;SDS011;42507;51.982;20.140;2022-11-12T17:01:26;41.53;;;26.42;;
56637;SDS011;42507;51.982;20.140;2022-11-12T17:04:13;47.35;;;27.58;;
56637;SDS011;42507;51.982;20.140;2022-11-12T17:06:58;47.45;;;27.90;;
56637;SDS011;42507;51.982;20.140;2022-11-12T17:09:43;43.55;;;25.02;;
56637;SDS011;42507;51.982;20.140;2022-11-12T17:12:28;47.43;;;25.88;;
56637;SDS011;42507;51.982;20.140;2022-11-12T17:15:13;40.90;;;24.45;;
56637;SDS011;42507;51.982;20.140;2022-11-12T17:17:57;48.35;;;24.80;;
56637;SDS011;42507;51.982;20.140;2022-11-12T17:20:42;34.83;;;19.70;;
56637;SDS011;42507;51.982;20.140;2022-11-12T17:23:27;32.42;;;18.82;;